sensor_id;sensor_type;location;lat;lon;timestamp;noise_LAeq;noise_LA_min;noise_LA_max;noise_LA01;noise_LA95
60503;Laerm;51448;51.660;5.824;2023-06-14T00:01:18;42.15;30.43;54.05;;
60503;Laerm;51448;51.660;5.824;2023-06-14T00:04:07;42.20;30.11;53.85;;
60503;Laerm;51448;51.660;5.824;2023-06-14T00:06:56;42.30;29.88;54.15;;
60503;Laerm;51448;51.660;5.824;2023-06-14T00:09:45;41.91;30.01;57.37;;
60503;Laerm;51448;51.660;5.824;2023-06-14T00:12:33;41.89;30.05;53.34;;
60503;Laerm;51448;51.660;5.824;2023-06-14T00:15:20;42.74;30.44;71.41;;
60503;Laerm;51448;51.660;5.824;2023-06-14T00:18:08;42.07;29.59;53.88;;
60503;Laerm;51448;51.660;5.824;2023-06-14T00:20:59;43.15;29.70;55.65;;
60503;Laerm;51448;51.660;5.824;2023-06-14T00:23:47;41.77;30.16;57.00;;
60503;Laerm;51448;51.660;5.824;2023-06-14T00:26:34;42.66;30.15;61.88;;
60503;Laerm;51448;51.660;5.824;2023-06-14T00:29:22;42.59;30.46;54.40;;
60503;Laerm;51448;51.660;5.824;2023-06-14T00:32:10;42.04;29.73;53.94;;
60503;Laerm;51448;51.660;5.824;2023-06-14T00:34:58;43.23;29.76;54.02;;
60503;Laerm;51448;51.660;5.824;2023-06-14T00:37:46;42.23;30.00;53.85;;
60503;Laerm;51448;51.660;5.824;2023-06-14T00:40:34;42.13;29.94;53.66;;
60503;Laerm;51448;51.660;5.824;2023-06-14T00:43:22;42.95;29.63;54.28;;
60503;Laerm;51448;51.660;5.824;2023-06-14T00:46:10;42.92;30.27;60.34;;
60503;Laerm;51448;51.660;5.824;2023-06-14T00:49:00;42.85;30.20;55.92;;
60503;Laerm;51448;51.660;5.824;2023-06-14T00:51:48;42.70;30.38;55.26;;
60503;Laerm;51448;51.660;5.824;2023-06-14T00:54:36;42.88;30.92;57.11;;
60503;Laerm;51448;51.660;5.824;2023-06-14T00:57:24;42.83;30.72;57.91;;
60503;Laerm;51448;51.660;5.824;2023-06-14T01:00:13;42.56;30.58;53.94;;
60503;Laerm;51448;51.660;5.824;2023-06-14T01:03:02;42.29;30.66;54.00;;
60503;Laerm;51448;51.660;5.824;2023-06-14T01:06:02;42.52;30.44;60.59;;
60503;Laerm;51448;51.660;5.824;2023-06-14T01:12:55;41.19;29.85;58.86;;
60503;Laerm;51448;51.660;5.824;2023-06-14T01:15:46;41.96;30.08;53.89;;
60503;Laerm;51448;51.660;5.824;2023-06-14T01:18:35;44.47;29.37;56.37;;
60503;Laerm;51448;51.660;5.824;2023-06-14T01:21:25;41.67;29.74;53.68;;
60503;Laerm;51448;51.660;5.824;2023-06-14T01:24:13;42.73;30.00;56.34;;
60503;Laerm;51448;51.660;5.824;2023-06-14T01:27:02;45.62;30.48;60.44;;
60503;Laerm;51448;51.660;5.824;2023-06-14T01:29:54;45.31;29.56;73.14;;
60503;Laerm;51448;51.660;5.824;2023-06-14T01:32:45;42.60;29.47;61.71;;
60503;Laerm;51448;51.660;5.824;2023-06-14T01:35:34;42.35;29.70;54.19;;
60503;Laerm;51448;51.660;5.824;2023-06-14T01:38:25;42.99;29.81;65.90;;
60503;Laerm;51448;51.660;5.824;2023-06-14T01:41:15;41.91;29.20;53.76;;
60503;Laerm;51448;51.660;5.824;2023-06-14T01:44:04;41.89;29.44;53.84;;
60503;Laerm;51448;51.660;5.824;2023-06-14T01:46:54;42.62;29.55;54.20;;
60503;Laerm;51448;51.660;5.824;2023-06-14T01:49:43;42.09;29.83;54.14;;
60503;Laerm;51448;51.660;5.824;2023-06-14T01:52:31;42.84;29.82;54.50;;
60503;Laerm;51448;51.660;5.824;2023-06-14T01:55:19;43.20;29.98;54.13;;
60503;Laerm;51448;51.660;5.824;2023-06-14T01:58:10;42.95;29.71;54.10;;
60503;Laerm;51448;51.660;5.824;2023-06-14T02:00:58;43.40;29.80;54.49;;
60503;Laerm;51448;51.660;5.824;2023-06-14T02:03:48;42.83;29.76;54.70;;
60503;Laerm;51448;51.660;5.824;2023-06-14T02:06:36;43.31;29.43;54.89;;
60503;Laerm;51448;51.660;5.824;2023-06-14T02:09:24;45.02;29.74;55.97;;
60503;Laerm;51448;51.660;5.824;2023-06-14T02:12:14;45.52;30.24;57.80;;
60503;Laerm;51448;51.660;5.824;2023-06-14T02:15:02;45.61;30.52;57.46;;
60503;Laerm;51448;51.660;5.824;2023-06-14T02:17:51;45.73;30.64;56.79;;
60503;Laerm;51448;51.660;5.824;2023-06-14T02:20:39;45.18;30.80;55.77;;
60503;Laerm;51448;51.660;5.824;2023-06-14T02:23:27;45.52;30.90;55.44;;
60503;Laerm;51448;51.660;5.824;2023-06-14T02:26:15;45.16;30.72;55.37;;
60503;Laerm;51448;51.660;5.824;2023-06-14T02:29:04;45.53;31.36;57.30;;
60503;Laerm;51448;51.660;5.824;2023-06-14T02:31:55;45.09;31.38;55.42;;
60503;Laerm;51448;51.660;5.824;2023-06-14T02:34:43;46.42;31.44;61.80;;
60503;Laerm;51448;51.660;5.824;2023-06-14T02:37:30;46.41;31.97;58.71;;
60503;Laerm;51448;51.660;5.824;2023-06-14T02:40:19;46.62;31.62;62.38;;
60503;Laerm;51448;51.660;5.824;2023-06-14T02:43:08;47.75;32.14;62.61;;
60503;Laerm;51448;51.660;5.824;2023-06-14T02:45:56;45.31;30.39;56.46;;
60503;Laerm;51448;51.660;5.824;2023-06-14T02:48:44;45.23;30.95;59.30;;
60503;Laerm;51448;51.660;5.824;2023-06-14T02:51:32;54.17;31.62;73.80;;
60503;Laerm;51448;51.660;5.824;2023-06-14T02:54:20;46.10;30.77;70.23;;
60503;Laerm;51448;51.660;5.824;2023-06-14T02:57:09;46.39;30.48;60.96;;
60503;Laerm;51448;51.660;5.824;2023-06-14T02:59:59;44.45;31.12;59.64;;
60503;Laerm;51448;51.660;5.824;2023-06-14T03:02:47;45.32;31.55;63.57;;
60503;Laerm;51448;51.660;5.824;2023-06-14T03:05:35;44.45;31.33;55.79;;
60503;Laerm;51448;51.660;5.824;2023-06-14T03:08:23;46.06;31.72;56.62;;
60503;Laerm;51448;51.660;5.824;2023-06-14T03:11:16;47.53;32.55;59.36;;
60503;Laerm;51448;51.660;5.824;2023-06-14T03:14:09;46.39;32.22;57.62;;
60503;Laerm;51448;51.660;5.824;2023-06-14T03:16:59;44.94;31.49;55.67;;
60503;Laerm;51448;51.660;5.824;2023-06-14T03:19:49;45.20;31.49;57.23;;
60503;Laerm;51448;51.660;5.824;2023-06-14T03:22:40;44.44;32.26;55.36;;
60503;Laerm;51448;51.660;5.824;2023-06-14T03:25:29;44.26;31.34;55.45;;
60503;Laerm;51448;51.660;5.824;2023-06-14T03:28:17;45.22;31.23;55.78;;
60503;Laerm;51448;51.660;5.824;2023-06-14T03:31:05;45.91;32.59;56.71;;
60503;Laerm;51448;51.660;5.824;2023-06-14T03:33:54;53.01;32.66;70.17;;
60503;Laerm;51448;51.660;5.824;2023-06-14T03:36:43;48.33;31.70;61.56;;
60503;Laerm;51448;51.660;5.824;2023-06-14T03:39:30;46.94;31.86;57.94;;
60503;Laerm;51448;51.660;5.824;2023-06-14T03:42:18;48.40;32.48;59.20;;
60503;Laerm;51448;51.660;5.824;2023-06-14T03:45:08;47.18;32.45;64.80;;
60503;Laerm;51448;51.660;5.824;2023-06-14T03:47:56;50.69;33.00;70.83;;
60503;Laerm;51448;51.660;5.824;2023-06-14T03:50:44;47.32;32.13;58.40;;
60503;Laerm;51448;51.660;5.824;2023-06-14T03:53:32;47.26;31.50;61.27;;
60503;Laerm;51448;51.660;5.824;2023-06-14T03:56:20;45.66;31.99;58.50;;
60503;Laerm;51448;51.660;5.824;2023-06-14T03:59:09;49.08;31.99;62.11;;
60503;Laerm;51448;51.660;5.824;2023-06-14T04:01:57;46.17;32.49;57.96;;
60503;Laerm;51448;51.660;5.824;2023-06-14T04:04:45;46.74;36.81;56.10;;
60503;Laerm;51448;51.660;5.824;2023-06-14T04:07:33;47.62;37.52;62.55;;
60503;Laerm;51448;51.660;5.824;2023-06-14T04:10:29;47.52;37.87;58.29;;
60503;Laerm;51448;51.660;5.824;2023-06-14T04:13:17;49.64;37.89;62.38;;
60503;Laerm;51448;51.660;5.824;2023-06-14T04:16:05;48.26;36.84;59.86;;
60503;Laerm;51448;51.660;5.824;2023-06-14T04:18:55;49.06;37.35;61.25;;
60503;Laerm;51448;51.660;5.824;2023-06-14T04:21:45;48.91;36.90;58.86;;
60503;Laerm;51448;51.660;5.824;2023-06-14T04:24:35;47.69;36.83;59.41;;
60503;Laerm;51448;51.660;5.824;2023-06-14T04:27:25;48.30;36.68;65.19;;
60503;Laerm;51448;51.660;5.824;2023-06-14T04:30:13;51.16;36.88;71.20;;
60503;Laerm;51448;51.660;5.824;2023-06-14T04:33:08;51.27;36.93;77.08;;
60503;Laerm;51448;51.660;5.824;2023-06-14T04:35:57;49.56;37.67;68.45;;
60503;Laerm;51448;51.660;5.824;2023-06-14T04:38:46;51.04;38.99;69.40;;
60503;Laerm;51448;51.660;5.824;2023-06-14T04:41:34;48.30;35.42;64.55;;
60503;Laerm;51448;51.660;5.824;2023-06-14T04:44:24;52.60;35.27;74.97;;
60503;Laerm;51448;51.660;5.824;2023-06-14T04:47:24;47.61;34.06;59.09;;
60503;Laerm;51448;51.660;5.824;2023-06-14T04:50:18;50.32;34.52;64.82;;
60503;Laerm;51448;51.660;5.824;2023-06-14T04:53:08;50.21;34.46;64.21;;
60503;Laerm;51448;51.660;5.824;2023-06-14T04:55:56;47.60;34.02;60.88;;
60503;Laerm;51448;51.660;5.824;2023-06-14T04:58:45;47.69;34.42;58.29;;
60503;Laerm;51448;51.660;5.824;2023-06-14T05:01:34;51.92;34.56;73.74;;
60503;Laerm;51448;51.660;5.824;2023-06-14T05:04:23;52.11;34.43;79.43;;
60503;Laerm;51448;51.660;5.824;2023-06-14T05:07:12;57.13;34.02;82.31;;
60503;Laerm;51448;51.660;5.824;2023-06-14T05:10:11;55.30;34.00;81.47;;
60503;Laerm;51448;51.660;5.824;2023-06-14T05:12:59;55.80;34.25;81.36;;
60503;Laerm;51448;51.660;5.824;2023-06-14T05:15:47;56.01;35.23;77.86;;
60503;Laerm;51448;51.660;5.824;2023-06-14T05:18:37;57.18;34.82;78.28;;
60503;Laerm;51448;51.660;5.824;2023-06-14T05:21:25;54.50;34.47;83.57;;
60503;Laerm;51448;51.660;5.824;2023-06-14T05:24:14;52.04;34.28;76.26;;
60503;Laerm;51448;51.660;5.824;2023-06-14T05:27:02;49.98;33.75;64.64;;
60503;Laerm;51448;51.660;5.824;2023-06-14T05:29:50;50.14;34.82;70.06;;
60503;Laerm;51448;51.660;5.824;2023-06-14T05:32:38;50.82;34.90;72.42;;
60503;Laerm;51448;51.660;5.824;2023-06-14T05:35:26;72.50;35.09;94.85;;
60503;Laerm;51448;51.660;5.824;2023-06-14T05:38:14;60.01;34.09;79.88;;
60503;Laerm;51448;51.660;5.824;2023-06-14T05:41:02;47.60;33.63;65.55;;
60503;Laerm;51448;51.660;5.824;2023-06-14T05:43:50;50.46;33.26;71.98;;
60503;Laerm;51448;51.660;5.824;2023-06-14T05:46:38;49.86;34.39;65.38;;
60503;Laerm;51448;51.660;5.824;2023-06-14T05:49:27;50.70;34.39;72.68;;
60503;Laerm;51448;51.660;5.824;2023-06-14T05:52:15;49.82;35.46;67.75;;
60503;Laerm;51448;51.660;5.824;2023-06-14T05:55:04;50.07;35.27;69.05;;
60503;Laerm;51448;51.660;5.824;2023-06-14T05:57:52;51.99;34.99;70.02;;
60503;Laerm;51448;51.660;5.824;2023-06-14T06:00:40;52.46;34.83;72.36;;
60503;Laerm;51448;51.660;5.824;2023-06-14T06:03:28;48.22;35.12;64.27;;
60503;Laerm;51448;51.660;5.824;2023-06-14T06:06:17;50.25;34.85;68.74;;
60503;Laerm;51448;51.660;5.824;2023-06-14T06:09:05;48.23;34.32;69.38;;
60503;Laerm;51448;51.660;5.824;2023-06-14T06:11:54;50.28;34.54;73.08;;
60503;Laerm;51448;51.660;5.824;2023-06-14T06:14:42;48.92;35.69;65.66;;
60503;Laerm;51448;51.660;5.824;2023-06-14T06:17:30;53.02;36.05;74.01;;
60503;Laerm;51448;51.660;5.824;2023-06-14T06:20:38;54.36;37.08;78.44;;
60503;Laerm;51448;51.660;5.824;2023-06-14T06:23:26;53.84;37.40;73.80;;
60503;Laerm;51448;51.660;5.824;2023-06-14T06:26:14;56.47;38.78;76.61;;
60503;Laerm;51448;51.660;5.824;2023-06-14T06:29:02;55.58;36.45;79.84;;
60503;Laerm;51448;51.660;5.824;2023-06-14T06:31:50;60.33;35.84;86.75;;
60503;Laerm;51448;51.660;5.824;2023-06-14T06:34:38;49.18;36.49;67.22;;
60503;Laerm;51448;51.660;5.824;2023-06-14T06:37:26;53.26;35.45;75.84;;
60503;Laerm;51448;51.660;5.824;2023-06-14T06:40:13;52.94;37.08;75.87;;
60503;Laerm;51448;51.660;5.824;2023-06-14T06:43:02;48.72;35.44;71.17;;
60503;Laerm;51448;51.660;5.824;2023-06-14T06:45:52;51.16;36.76;73.67;;
60503;Laerm;51448;51.660;5.824;2023-06-14T06:48:40;55.22;36.46;69.32;;
60503;Laerm;51448;51.660;5.824;2023-06-14T06:51:27;58.79;47.94;73.34;;
60503;Laerm;51448;51.660;5.824;2023-06-14T06:54:15;51.25;41.37;65.56;;
60503;Laerm;51448;51.660;5.824;2023-06-14T06:57:03;50.22;37.46;71.39;;
60503;Laerm;51448;51.660;5.824;2023-06-14T06:59:51;48.35;36.31;69.03;;
60503;Laerm;51448;51.660;5.824;2023-06-14T07:02:39;53.21;36.85;79.13;;
60503;Laerm;51448;51.660;5.824;2023-06-14T07:05:27;51.93;36.23;72.12;;
60503;Laerm;51448;51.660;5.824;2023-06-14T07:08:15;53.88;40.89;77.34;;
60503;Laerm;51448;51.660;5.824;2023-06-14T07:11:02;49.38;36.53;73.31;;
60503;Laerm;51448;51.660;5.824;2023-06-14T07:13:51;57.96;37.83;80.68;;
60503;Laerm;51448;51.660;5.824;2023-06-14T07:16:40;59.66;39.56;85.63;;
60503;Laerm;51448;51.660;5.824;2023-06-14T07:19:29;58.55;37.04;79.24;;
60503;Laerm;51448;51.660;5.824;2023-06-14T07:22:18;56.36;38.54;78.80;;
60503;Laerm;51448;51.660;5.824;2023-06-14T07:25:08;72.56;38.38;85.83;;
60503;Laerm;51448;51.660;5.824;2023-06-14T07:27:56;72.97;54.49;82.98;;
60503;Laerm;51448;51.660;5.824;2023-06-14T07:30:44;65.68;41.10;83.39;;
60503;Laerm;51448;51.660;5.824;2023-06-14T07:33:32;55.82;37.11;75.93;;
60503;Laerm;51448;51.660;5.824;2023-06-14T07:36:20;69.29;40.39;88.70;;
60503;Laerm;51448;51.660;5.824;2023-06-14T07:39:07;63.63;37.13;78.43;;
60503;Laerm;51448;51.660;5.824;2023-06-14T07:41:56;65.11;41.89;89.46;;
60503;Laerm;51448;51.660;5.824;2023-06-14T07:44:44;57.31;39.43;78.42;;
60503;Laerm;51448;51.660;5.824;2023-06-14T07:47:33;59.34;38.85;83.10;;
60503;Laerm;51448;51.660;5.824;2023-06-14T07:50:21;51.08;37.47;75.65;;
60503;Laerm;51448;51.660;5.824;2023-06-14T07:53:09;59.62;36.96;81.20;;
60503;Laerm;51448;51.660;5.824;2023-06-14T07:55:58;53.54;36.50;73.76;;
60503;Laerm;51448;51.660;5.824;2023-06-14T07:58:45;55.35;39.02;72.38;;
60503;Laerm;51448;51.660;5.824;2023-06-14T08:01:34;56.00;38.16;80.18;;
60503;Laerm;51448;51.660;5.824;2023-06-14T08:04:22;57.95;37.09;80.45;;
60503;Laerm;51448;51.660;5.824;2023-06-14T08:07:11;49.99;34.30;74.70;;
60503;Laerm;51448;51.660;5.824;2023-06-14T08:09:59;57.73;37.25;76.92;;
60503;Laerm;51448;51.660;5.824;2023-06-14T08:12:48;58.00;37.65;79.67;;
60503;Laerm;51448;51.660;5.824;2023-06-14T08:15:37;51.08;36.65;74.65;;
60503;Laerm;51448;51.660;5.824;2023-06-14T08:18:25;54.02;38.21;76.71;;
60503;Laerm;51448;51.660;5.824;2023-06-14T08:21:13;49.92;36.64;68.39;;
60503;Laerm;51448;51.660;5.824;2023-06-14T08:24:02;57.08;43.81;71.46;;
60503;Laerm;51448;51.660;5.824;2023-06-14T08:26:51;54.81;40.14;72.94;;
60503;Laerm;51448;51.660;5.824;2023-06-14T08:29:39;62.07;41.56;80.17;;
60503;Laerm;51448;51.660;5.824;2023-06-14T08:32:29;59.40;37.26;78.86;;
60503;Laerm;51448;51.660;5.824;2023-06-14T08:35:17;62.41;37.86;83.40;;
60503;Laerm;51448;51.660;5.824;2023-06-14T08:38:06;60.06;36.78;79.14;;
60503;Laerm;51448;51.660;5.824;2023-06-14T08:40:57;57.45;39.24;83.12;;
60503;Laerm;51448;51.660;5.824;2023-06-14T08:43:46;60.79;44.16;79.05;;
60503;Laerm;51448;51.660;5.824;2023-06-14T08:46:37;56.87;38.50;78.03;;
60503;Laerm;51448;51.660;5.824;2023-06-14T08:49:26;55.74;35.90;76.09;;
60503;Laerm;51448;51.660;5.824;2023-06-14T08:52:19;54.98;37.30;75.91;;
60503;Laerm;51448;51.660;5.824;2023-06-14T08:55:08;58.16;39.67;79.16;;
60503;Laerm;51448;51.660;5.824;2023-06-14T08:57:58;60.45;33.92;86.10;;
60503;Laerm;51448;51.660;5.824;2023-06-14T09:00:46;60.36;36.30;84.34;;
60503;Laerm;51448;51.660;5.824;2023-06-14T09:03:34;48.87;34.57;64.90;;
60503;Laerm;51448;51.660;5.824;2023-06-14T09:06:23;56.04;33.80;76.10;;
60503;Laerm;51448;51.660;5.824;2023-06-14T09:09:12;55.17;37.05;81.66;;
60503;Laerm;51448;51.660;5.824;2023-06-14T09:12:00;50.86;34.06;73.92;;
60503;Laerm;51448;51.660;5.824;2023-06-14T09:14:48;46.32;32.45;67.30;;
60503;Laerm;51448;51.660;5.824;2023-06-14T09:17:37;53.10;35.41;74.47;;
60503;Laerm;51448;51.660;5.824;2023-06-14T09:20:25;54.27;33.08;74.42;;
60503;Laerm;51448;51.660;5.824;2023-06-14T09:23:20;45.83;31.76;67.31;;
60503;Laerm;51448;51.660;5.824;2023-06-14T09:26:13;49.81;32.02;71.22;;
60503;Laerm;51448;51.660;5.824;2023-06-14T09:29:01;56.03;32.97;73.79;;
60503;Laerm;51448;51.660;5.824;2023-06-14T09:31:53;52.17;33.57;74.09;;
60503;Laerm;51448;51.660;5.824;2023-06-14T09:34:40;58.59;34.34;84.03;;
60503;Laerm;51448;51.660;5.824;2023-06-14T09:37:31;57.56;38.06;80.92;;
60503;Laerm;51448;51.660;5.824;2023-06-14T09:40:21;61.74;36.17;81.68;;
60503;Laerm;51448;51.660;5.824;2023-06-14T09:43:09;61.22;38.50;86.95;;
60503;Laerm;51448;51.660;5.824;2023-06-14T09:45:58;59.05;36.15;80.05;;
60503;Laerm;51448;51.660;5.824;2023-06-14T09:48:46;58.45;35.31;81.16;;
60503;Laerm;51448;51.660;5.824;2023-06-14T09:51:42;54.89;34.93;76.96;;
60503;Laerm;51448;51.660;5.824;2023-06-14T09:54:33;45.29;33.52;67.77;;
60503;Laerm;51448;51.660;5.824;2023-06-14T09:57:23;56.17;37.03;76.57;;
60503;Laerm;51448;51.660;5.824;2023-06-14T10:00:14;53.62;34.62;77.08;;
60503;Laerm;51448;51.660;5.824;2023-06-14T10:03:12;54.85;36.33;76.62;;
60503;Laerm;51448;51.660;5.824;2023-06-14T10:06:07;59.03;35.29;81.02;;
60503;Laerm;51448;51.660;5.824;2023-06-14T10:09:00;55.86;37.98;76.25;;
60503;Laerm;51448;51.660;5.824;2023-06-14T10:11:49;57.66;36.49;78.72;;
60503;Laerm;51448;51.660;5.824;2023-06-14T10:14:38;57.82;36.03;77.77;;
60503;Laerm;51448;51.660;5.824;2023-06-14T10:17:43;62.67;33.46;84.47;;
60503;Laerm;51448;51.660;5.824;2023-06-14T10:23:45;63.79;39.27;88.84;;
60503;Laerm;51448;51.660;5.824;2023-06-14T10:26:34;53.48;36.16;73.56;;
60503;Laerm;51448;51.660;5.824;2023-06-14T10:29:22;54.46;34.90;74.59;;
60503;Laerm;51448;51.660;5.824;2023-06-14T10:32:10;57.63;37.69;76.90;;
60503;Laerm;51448;51.660;5.824;2023-06-14T10:35:06;46.81;33.45;65.15;;
60503;Laerm;51448;51.660;5.824;2023-06-14T10:38:09;54.60;33.62;74.30;;
60503;Laerm;51448;51.660;5.824;2023-06-14T10:40:57;55.41;34.15;79.13;;
60503;Laerm;51448;51.660;5.824;2023-06-14T10:43:45;59.31;32.40;79.93;;
60503;Laerm;51448;51.660;5.824;2023-06-14T10:46:32;60.65;38.67;86.47;;
60503;Laerm;51448;51.660;5.824;2023-06-14T10:49:44;56.55;33.87;78.87;;
60503;Laerm;51448;51.660;5.824;2023-06-14T10:52:40;52.33;33.18;73.68;;
60503;Laerm;51448;51.660;5.824;2023-06-14T10:55:35;53.64;35.05;82.13;;
60503;Laerm;51448;51.660;5.824;2023-06-14T10:58:23;59.68;36.44;82.64;;
60503;Laerm;51448;51.660;5.824;2023-06-14T11:01:12;64.70;39.11;86.14;;
60503;Laerm;51448;51.660;5.824;2023-06-14T11:04:08;58.88;36.22;80.02;;
60503;Laerm;51448;51.660;5.824;2023-06-14T11:13:11;59.75;35.16;80.19;;
60503;Laerm;51448;51.660;5.824;2023-06-14T11:15:59;50.76;36.11;67.36;;
60503;Laerm;51448;51.660;5.824;2023-06-14T11:18:49;64.77;37.57;87.87;;
60503;Laerm;51448;51.660;5.824;2023-06-14T11:21:40;61.34;37.67;79.21;;
60503;Laerm;51448;51.660;5.824;2023-06-14T11:24:28;60.76;38.63;82.88;;
60503;Laerm;51448;51.660;5.824;2023-06-14T11:27:16;60.89;38.74;83.84;;
60503;Laerm;51448;51.660;5.824;2023-06-14T11:30:07;58.80;38.39;81.52;;
60503;Laerm;51448;51.660;5.824;2023-06-14T11:32:55;57.34;35.69;77.31;;
60503;Laerm;51448;51.660;5.824;2023-06-14T11:35:45;61.58;34.23;80.40;;
60503;Laerm;51448;51.660;5.824;2023-06-14T11:38:36;54.64;33.99;73.80;;
60503;Laerm;51448;51.660;5.824;2023-06-14T11:41:25;54.14;34.26;70.94;;
60503;Laerm;51448;51.660;5.824;2023-06-14T11:44:13;53.45;34.45;75.70;;
60503;Laerm;51448;51.660;5.824;2023-06-14T11:47:03;51.66;36.06;72.14;;
60503;Laerm;51448;51.660;5.824;2023-06-14T11:49:51;53.03;33.78;76.06;;
60503;Laerm;51448;51.660;5.824;2023-06-14T11:52:39;51.27;31.48;74.32;;
60503;Laerm;51448;51.660;5.824;2023-06-14T11:55:27;51.33;35.60;72.46;;
60503;Laerm;51448;51.660;5.824;2023-06-14T11:58:16;63.27;35.79;90.51;;
60503;Laerm;51448;51.660;5.824;2023-06-14T12:01:04;60.14;33.89;81.55;;
60503;Laerm;51448;51.660;5.824;2023-06-14T12:03:54;58.99;34.53;80.86;;
60503;Laerm;51448;51.660;5.824;2023-06-14T12:06:42;49.19;33.38;68.39;;
60503;Laerm;51448;51.660;5.824;2023-06-14T12:09:31;60.41;37.01;78.93;;
60503;Laerm;51448;51.660;5.824;2023-06-14T12:12:21;60.95;36.77;81.97;;
60503;Laerm;51448;51.660;5.824;2023-06-14T12:15:10;58.77;34.95;80.26;;
60503;Laerm;51448;51.660;5.824;2023-06-14T12:18:00;60.59;36.83;80.88;;
60503;Laerm;51448;51.660;5.824;2023-06-14T12:20:50;51.35;34.99;72.65;;
60503;Laerm;51448;51.660;5.824;2023-06-14T12:23:49;53.29;37.12;76.81;;
60503;Laerm;51448;51.660;5.824;2023-06-14T12:26:39;60.82;37.62;81.84;;
60503;Laerm;51448;51.660;5.824;2023-06-14T12:29:31;57.39;37.55;73.29;;
60503;Laerm;51448;51.660;5.824;2023-06-14T12:32:19;60.45;38.04;83.08;;
60503;Laerm;51448;51.660;5.824;2023-06-14T12:35:11;61.40;38.31;83.08;;
60503;Laerm;51448;51.660;5.824;2023-06-14T12:38:00;59.52;36.05;90.26;;
60503;Laerm;51448;51.660;5.824;2023-06-14T12:40:48;59.88;35.37;82.51;;
60503;Laerm;51448;51.660;5.824;2023-06-14T12:43:37;69.21;38.07;90.77;;
60503;Laerm;51448;51.660;5.824;2023-06-14T12:46:25;65.79;33.81;85.84;;
60503;Laerm;51448;51.660;5.824;2023-06-14T12:49:13;68.43;35.76;90.00;;
60503;Laerm;51448;51.660;5.824;2023-06-14T12:52:01;65.16;37.09;84.40;;
60503;Laerm;51448;51.660;5.824;2023-06-14T12:54:49;63.68;36.39;84.71;;
60503;Laerm;51448;51.660;5.824;2023-06-14T12:57:37;61.64;39.01;83.83;;
60503;Laerm;51448;51.660;5.824;2023-06-14T13:00:25;58.68;36.11;83.78;;
60503;Laerm;51448;51.660;5.824;2023-06-14T13:03:14;59.43;34.28;84.28;;
60503;Laerm;51448;51.660;5.824;2023-06-14T13:06:02;53.50;34.88;73.54;;
60503;Laerm;51448;51.660;5.824;2023-06-14T13:08:51;48.94;32.76;69.32;;
60503;Laerm;51448;51.660;5.824;2023-06-14T13:11:42;51.79;32.93;74.90;;
60503;Laerm;51448;51.660;5.824;2023-06-14T13:14:33;50.62;34.59;72.26;;
60503;Laerm;51448;51.660;5.824;2023-06-14T13:17:21;54.71;35.76;75.15;;
60503;Laerm;51448;51.660;5.824;2023-06-14T13:20:09;58.87;36.58;83.35;;
60503;Laerm;51448;51.660;5.824;2023-06-14T13:22:59;63.19;38.75;84.36;;
60503;Laerm;51448;51.660;5.824;2023-06-14T13:25:47;59.29;37.13;81.15;;
60503;Laerm;51448;51.660;5.824;2023-06-14T13:28:37;55.18;36.56;74.41;;
60503;Laerm;51448;51.660;5.824;2023-06-14T13:31:25;64.09;36.24;84.11;;
60503;Laerm;51448;51.660;5.824;2023-06-14T13:34:12;54.43;35.02;75.10;;
60503;Laerm;51448;51.660;5.824;2023-06-14T13:37:00;63.22;37.66;81.72;;
60503;Laerm;51448;51.660;5.824;2023-06-14T13:39:48;61.65;33.27;84.25;;
60503;Laerm;51448;51.660;5.824;2023-06-14T13:42:36;52.12;35.91;74.73;;
60503;Laerm;51448;51.660;5.824;2023-06-14T13:45:24;51.93;32.95;72.12;;
60503;Laerm;51448;51.660;5.824;2023-06-14T13:48:12;50.80;36.47;70.33;;
60503;Laerm;51448;51.660;5.824;2023-06-14T13:51:00;52.82;35.18;79.07;;
60503;Laerm;51448;51.660;5.824;2023-06-14T13:53:49;52.84;36.11;75.89;;
60503;Laerm;51448;51.660;5.824;2023-06-14T13:56:38;54.81;36.96;77.45;;
60503;Laerm;51448;51.660;5.824;2023-06-14T13:59:26;52.23;35.80;76.00;;
60503;Laerm;51448;51.660;5.824;2023-06-14T14:02:14;50.02;32.90;73.32;;
60503;Laerm;51448;51.660;5.824;2023-06-14T14:05:02;56.91;34.77;80.12;;
60503;Laerm;51448;51.660;5.824;2023-06-14T14:07:50;59.29;35.93;78.84;;
60503;Laerm;51448;51.660;5.824;2023-06-14T14:10:39;57.92;36.21;80.38;;
60503;Laerm;51448;51.660;5.824;2023-06-14T14:13:27;76.41;34.26;96.81;;
60503;Laerm;51448;51.660;5.824;2023-06-14T14:16:16;68.72;33.85;95.99;;
60503;Laerm;51448;51.660;5.824;2023-06-14T14:19:04;52.48;33.17;75.16;;
60503;Laerm;51448;51.660;5.824;2023-06-14T14:21:52;51.43;35.16;68.85;;
60503;Laerm;51448;51.660;5.824;2023-06-14T14:24:41;54.00;34.89;72.85;;
60503;Laerm;51448;51.660;5.824;2023-06-14T14:27:29;55.66;37.22;79.58;;
60503;Laerm;51448;51.660;5.824;2023-06-14T14:30:17;55.22;35.21;80.10;;
60503;Laerm;51448;51.660;5.824;2023-06-14T14:33:07;57.46;34.99;79.16;;
60503;Laerm;51448;51.660;5.824;2023-06-14T14:35:55;57.99;36.20;81.14;;
60503;Laerm;51448;51.660;5.824;2023-06-14T14:38:43;66.07;41.08;86.90;;
60503;Laerm;51448;51.660;5.824;2023-06-14T14:41:31;63.43;39.53;81.04;;
60503;Laerm;51448;51.660;5.824;2023-06-14T14:44:19;52.72;36.20;66.42;;
60503;Laerm;51448;51.660;5.824;2023-06-14T14:47:07;55.75;36.77;74.09;;
60503;Laerm;51448;51.660;5.824;2023-06-14T14:49:55;52.23;35.65;71.29;;
60503;Laerm;51448;51.660;5.824;2023-06-14T14:52:43;61.30;36.90;79.76;;
60503;Laerm;51448;51.660;5.824;2023-06-14T14:55:30;62.10;35.21;83.30;;
60503;Laerm;51448;51.660;5.824;2023-06-14T14:58:20;66.85;34.40;85.35;;
60503;Laerm;51448;51.660;5.824;2023-06-14T15:01:08;60.57;34.96;81.78;;
60503;Laerm;51448;51.660;5.824;2023-06-14T15:03:55;67.45;44.34;78.26;;
60503;Laerm;51448;51.660;5.824;2023-06-14T15:06:46;59.00;35.19;78.05;;
60503;Laerm;51448;51.660;5.824;2023-06-14T15:09:34;55.68;36.17;74.70;;
60503;Laerm;51448;51.660;5.824;2023-06-14T15:12:22;50.67;33.75;70.61;;
60503;Laerm;51448;51.660;5.824;2023-06-14T15:15:10;50.02;38.17;72.50;;
60503;Laerm;51448;51.660;5.824;2023-06-14T15:17:59;55.51;35.99;76.78;;
60503;Laerm;51448;51.660;5.824;2023-06-14T15:20:48;57.62;38.32;72.71;;
60503;Laerm;51448;51.660;5.824;2023-06-14T15:23:37;54.07;36.85;76.68;;
60503;Laerm;51448;51.660;5.824;2023-06-14T15:26:25;60.69;39.91;83.98;;
60503;Laerm;51448;51.660;5.824;2023-06-14T15:29:13;56.09;35.88;75.59;;
60503;Laerm;51448;51.660;5.824;2023-06-14T15:32:01;55.52;35.60;79.93;;
60503;Laerm;51448;51.660;5.824;2023-06-14T15:34:49;49.04;34.86;69.13;;
60503;Laerm;51448;51.660;5.824;2023-06-14T15:37:37;60.23;37.15;83.22;;
60503;Laerm;51448;51.660;5.824;2023-06-14T15:40:25;50.56;34.12;71.79;;
60503;Laerm;51448;51.660;5.824;2023-06-14T15:43:14;57.56;37.72;79.16;;
60503;Laerm;51448;51.660;5.824;2023-06-14T15:46:02;52.25;36.39;70.97;;
60503;Laerm;51448;51.660;5.824;2023-06-14T15:48:50;58.07;35.05;85.49;;
60503;Laerm;51448;51.660;5.824;2023-06-14T15:51:38;50.52;34.83;70.40;;
60503;Laerm;51448;51.660;5.824;2023-06-14T15:54:25;64.66;36.68;82.36;;
60503;Laerm;51448;51.660;5.824;2023-06-14T15:57:13;57.49;35.90;80.24;;
60503;Laerm;51448;51.660;5.824;2023-06-14T16:00:01;56.38;34.05;75.80;;